Time;durP1;ratioP1;P1;durP2;ratioP2;P2;SDS_P1;SDS_P2;PMS_P1;PMS_P2;Temp;Humidity;BMP_temperature;BMP_pressure;BME280_temperature;BME280_humidity;BME280_pressure;Samples;Min_cycle;Max_cycle;Signal;HPM_P1;HPM_P2
2023/12/19 00:00:37;;;;;;;15.55;8.52;;;27.40;76.80;;;;;;5022784;28;20177;-81
2023/12/19 00:03:05;;;;;;;20.55;8.82;;;27.40;76.70;;;;;;5009708;28;20492;-79
2023/12/19 00:05:33;;;;;;;14.55;9.13;;;27.40;76.90;;;;;;5020771;28;20052;-77
2023/12/19 00:08:01;;;;;;;16.67;10.30;;;27.50;76.70;;;;;;5023052;28;20032;-80
2023/12/19 00:10:29;;;;;;;19.45;13.45;;;27.60;76.70;;;;;;5008578;28;20121;-86
2023/12/19 00:12:56;;;;;;;21.00;13.13;;;27.60;76.00;;;;;;5011075;28;20034;-82
2023/12/19 00:15:24;;;;;;;20.27;14.10;;;27.70;75.40;;;;;;5010791;28;20072;-79
2023/12/19 00:17:51;;;;;;;15.55;11.75;;;27.70;75.30;;;;;;5010220;28;20130;-77
2023/12/19 00:20:18;;;;;;;20.83;12.77;;;27.70;75.10;;;;;;5018852;28;20037;-77
2023/12/19 00:22:49;;;;;;;18.95;12.95;;;27.80;74.50;;;;;;5020361;28;20051;-79
2023/12/19 00:25:16;;;;;;;21.15;12.27;;;27.80;74.60;;;;;;5011853;28;20517;-84
2023/12/19 00:27:43;;;;;;;18.35;12.93;;;27.80;74.80;;;;;;5010227;28;20080;-81
2023/12/19 00:30:11;;;;;;;20.30;13.07;;;27.90;74.50;;;;;;5013115;28;20504;-88
2023/12/19 00:32:39;;;;;;;23.00;13.63;;;28.00;74.00;;;;;;5013078;28;20026;-81
2023/12/19 00:35:07;;;;;;;25.60;14.35;;;28.00;74.10;;;;;;5011981;28;20030;-88
2023/12/19 00:37:35;;;;;;;23.38;15.27;;;28.10;74.00;;;;;;5013808;28;20043;-82
2023/12/19 00:40:04;;;;;;;23.58;16.33;;;28.10;73.80;;;;;;5011513;28;20026;-86
2023/12/19 00:42:31;;;;;;;17.98;13.27;;;28.20;73.60;;;;;;5019625;28;20022;-86
2023/12/19 00:45:02;;;;;;;24.58;15.30;;;28.30;73.50;;;;;;5013388;28;20529;-81
2023/12/19 00:47:31;;;;;;;22.58;16.10;;;28.30;73.60;;;;;;5012805;28;20097;-87
2023/12/19 00:49:58;;;;;;;25.55;19.60;;;28.40;73.40;;;;;;5023109;28;20031;-83
2023/12/19 00:52:27;;;;;;;22.70;18.63;;;28.50;72.90;;;;;;5028894;28;20030;-88
2023/12/19 00:54:54;;;;;;;24.58;19.00;;;28.50;72.70;;;;;;5018391;28;20022;-90
2023/12/19 00:57:22;;;;;;;23.20;12.05;;;28.50;72.50;;;;;;5013150;28;20056;-89
2023/12/19 00:59:49;;;;;;;22.33;12.13;;;28.60;72.60;;;;;;5012814;28;20028;-90
2023/12/19 01:02:16;;;;;;;24.00;12.60;;;28.70;72.60;;;;;;5013763;28;20121;-88
2023/12/19 01:04:44;;;;;;;23.08;13.40;;;28.80;72.70;;;;;;5012383;28;20018;-89
2023/12/19 01:07:11;;;;;;;22.85;13.70;;;28.80;72.70;;;;;;5012642;28;20124;-88
2023/12/19 01:09:39;;;;;;;16.75;11.95;;;28.80;72.70;;;;;;5002714;28;20018;-85
2023/12/19 01:12:07;;;;;;;15.60;12.75;;;28.80;72.70;;;;;;5012403;28;20045;-84
2023/12/19 01:14:34;;;;;;;21.75;13.43;;;28.80;72.90;;;;;;5017983;28;20453;-89
2023/12/19 01:17:02;;;;;;;21.63;13.40;;;28.80;72.80;;;;;;5021530;28;20041;-80
2023/12/19 01:19:29;;;;;;;24.83;13.50;;;28.80;72.40;;;;;;5017153;28;20433;-88
2023/12/19 01:21:58;;;;;;;19.50;12.80;;;28.80;72.60;;;;;;5015208;28;20516;-84
2023/12/19 01:24:25;;;;;;;21.35;12.90;;;28.80;72.40;;;;;;5014363;28;20440;-87
2023/12/19 01:26:52;;;;;;;19.92;12.88;;;28.80;72.50;;;;;;5008812;28;20381;-82
2023/12/19 01:29:20;;;;;;;20.20;12.15;;;28.80;72.40;;;;;;5025413;28;20033;-79
2023/12/19 01:31:48;;;;;;;18.50;11.40;;;28.80;72.30;;;;;;5021674;28;20064;-88
2023/12/19 01:34:15;;;;;;;19.75;11.63;;;28.80;72.30;;;;;;5014162;28;20330;-79
2023/12/19 01:36:42;;;;;;;24.95;12.27;;;28.70;72.20;;;;;;5008312;28;20034;-86
2023/12/19 01:39:10;;;;;;;21.30;12.27;;;28.70;72.30;;;;;;5021870;28;20083;-86
2023/12/19 01:41:37;;;;;;;24.80;13.38;;;28.70;72.30;;;;;;5026344;28;20120;-82
2023/12/19 01:44:05;;;;;;;20.25;12.05;;;28.60;72.20;;;;;;5020915;28;20437;-87
2023/12/19 01:46:32;;;;;;;24.75;13.35;;;28.60;72.30;;;;;;5014246;28;20939;-85
2023/12/19 01:49:00;;;;;;;25.17;13.68;;;28.50;72.40;;;;;;5014355;28;20025;-83
2023/12/19 01:51:28;;;;;;;24.05;14.35;;;28.50;72.50;;;;;;5010137;28;20029;-84
2023/12/19 01:53:56;;;;;;;23.05;13.75;;;28.50;72.60;;;;;;5013075;28;20885;-82
2023/12/19 01:56:24;;;;;;;20.63;13.05;;;28.50;72.60;;;;;;5009384;28;20030;-83
2023/12/19 01:58:51;;;;;;;22.42;13.77;;;28.50;72.60;;;;;;5018980;28;20022;-83
2023/12/19 02:01:21;;;;;;;26.05;15.10;;;28.50;72.60;;;;;;5025061;28;20030;-81
2023/12/19 02:03:48;;;;;;;22.80;14.18;;;28.60;72.50;;;;;;5012122;28;20088;-78
2023/12/19 02:06:19;;;;;;;22.85;15.50;;;28.60;72.60;;;;;;5025965;28;20128;-80
2023/12/19 02:08:46;;;;;;;25.67;17.00;;;28.60;72.50;;;;;;5023421;28;20124;-84
2023/12/19 02:11:18;;;;;;;22.92;16.70;;;28.70;72.40;;;;;;5010350;28;20022;-79
2023/12/19 02:13:47;;;;;;;26.73;18.52;;;28.70;72.60;;;;;;5010064;28;20448;-78
2023/12/19 02:16:16;;;;;;;36.72;24.27;;;28.80;72.50;;;;;;5008614;28;20038;-85
2023/12/19 02:18:43;;;;;;;42.92;38.25;;;28.80;72.30;;;;;;5016803;28;20488;-83
2023/12/19 02:21:10;;;;;;;56.03;50.50;;;28.90;72.00;;;;;;5016609;28;20029;-88
2023/12/19 02:23:38;;;;;;;63.20;56.90;;;29.10;70.80;;;;;;5010083;28;20038;-84
2023/12/19 02:26:05;;;;;;;68.35;61.53;;;29.10;67.10;;;;;;5004898;28;20032;-79
2023/12/19 02:28:32;;;;;;;71.55;64.55;;;29.30;65.90;;;;;;5012964;28;20500;-80
2023/12/19 02:31:03;;;;;;;71.97;64.82;;;29.40;64.40;;;;;;5006925;28;20038;-82
2023/12/19 02:33:30;;;;;;;68.30;61.60;;;29.60;63.70;;;;;;5008604;28;20079;-88
2023/12/19 02:35:58;;;;;;;68.78;62.10;;;29.70;62.10;;;;;;5010313;28;20042;-88
2023/12/19 02:38:25;;;;;;;69.75;62.70;;;29.80;60.80;;;;;;5010546;28;20033;-77
2023/12/19 02:40:53;;;;;;;68.35;61.75;;;30.00;59.90;;;;;;5014000;28;20160;-89
2023/12/19 02:43:20;;;;;;;70.18;62.83;;;30.10;59.00;;;;;;5010151;28;20679;-80
2023/12/19 02:45:47;;;;;;;68.18;61.50;;;30.30;58.40;;;;;;5015154;28;20025;-82
2023/12/19 02:48:16;;;;;;;66.15;59.85;;;30.40;58.40;;;;;;5012940;28;20034;-85
2023/12/19 02:50:43;;;;;;;66.20;59.83;;;30.50;57.50;;;;;;5017587;28;20109;-81
2023/12/19 02:53:10;;;;;;;66.13;59.50;;;30.60;57.40;;;;;;5017770;28;20032;-83
2023/12/19 02:55:39;;;;;;;62.08;56.10;;;30.70;57.00;;;;;;5015685;28;20448;-85
2023/12/19 02:58:06;;;;;;;59.25;53.33;;;30.80;57.20;;;;;;5019222;28;20137;-81
2023/12/19 03:00:34;;;;;;;55.55;50.08;;;30.90;55.80;;;;;;5018651;28;20037;-80
2023/12/19 03:03:05;;;;;;;56.17;50.90;;;31.00;54.40;;;;;;5017696;28;20109;-83
2023/12/19 03:05:32;;;;;;;54.42;49.20;;;31.10;54.40;;;;;;5013758;28;20038;-84
2023/12/19 03:08:00;;;;;;;54.20;48.78;;;31.20;53.00;;;;;;5000846;28;20092;-82
2023/12/19 03:10:27;;;;;;;53.47;48.20;;;31.30;52.60;;;;;;5012291;28;20061;-84
2023/12/19 03:12:54;;;;;;;51.88;46.85;;;31.40;52.40;;;;;;5014681;28;20045;-82
2023/12/19 03:15:24;;;;;;;45.60;41.40;;;31.50;52.00;;;;;;5015108;28;20485;-81
2023/12/19 03:17:51;;;;;;;45.65;40.92;;;31.60;50.80;;;;;;5010166;28;20037;-87
2023/12/19 03:20:20;;;;;;;45.03;40.60;;;31.70;48.70;;;;;;5014647;28;20025;-81
2023/12/19 03:22:47;;;;;;;38.45;34.80;;;31.80;49.40;;;;;;5013237;28;20030;-87
2023/12/19 03:25:14;;;;;;;44.90;40.55;;;31.80;48.60;;;;;;5018066;28;20025;-89
2023/12/19 03:27:42;;;;;;;44.55;40.13;;;31.90;48.60;;;;;;5008028;28;20403;-88
2023/12/19 03:30:10;;;;;;;46.30;41.65;;;32.00;48.10;;;;;;5012173;28;20026;-82
2023/12/19 03:32:38;;;;;;;46.00;41.28;;;32.10;47.90;;;;;;5014342;28;20052;-89
2023/12/19 03:35:06;;;;;;;44.42;39.97;;;32.20;47.90;;;;;;5023886;28;20384;-83
2023/12/19 03:37:33;;;;;;;48.05;43.08;;;32.30;48.20;;;;;;5016175;28;20036;-77
2023/12/19 03:40:01;;;;;;;45.30;40.83;;;32.30;47.40;;;;;;5006437;28;20104;-83
2023/12/19 03:42:28;;;;;;;44.70;40.25;;;32.30;47.80;;;;;;5009488;28;20049;-81
2023/12/19 03:44:56;;;;;;;41.92;37.75;;;32.30;47.70;;;;;;5007802;28;20030;-90
2023/12/19 03:47:23;;;;;;;41.35;37.45;;;32.40;48.30;;;;;;5010356;28;20109;-83
2023/12/19 03:49:50;;;;;;;40.80;37.03;;;32.30;48.30;;;;;;5008175;28;20473;-87
2023/12/19 03:52:18;;;;;;;40.65;36.65;;;32.40;48.20;;;;;;5012736;28;20026;-85
2023/12/19 03:54:45;;;;;;;39.58;36.00;;;32.40;48.80;;;;;;5012984;28;20033;-87
2023/12/19 03:57:16;;;;;;;40.08;36.10;;;32.40;48.80;;;;;;5009892;28;20072;-77
2023/12/19 03:59:44;;;;;;;39.53;35.53;;;32.40;48.80;;;;;;5013005;28;20033;-79
2023/12/19 04:02:11;;;;;;;37.75;33.97;;;32.40;49.60;;;;;;5019898;28;20032;-76
2023/12/19 04:04:39;;;;;;;35.40;31.90;;;32.30;50.30;;;;;;5007161;28;20105;-89
2023/12/19 04:07:06;;;;;;;36.22;32.70;;;32.30;51.10;;;;;;5015305;28;20040;-77
2023/12/19 04:09:34;;;;;;;35.15;31.00;;;32.30;50.50;;;;;;5020057;28;20033;-80
2023/12/19 04:12:02;;;;;;;34.40;31.17;;;32.30;49.90;;;;;;5012018;28;20021;-85
2023/12/19 04:14:34;;;;;;;35.55;32.05;;;32.30;49.80;;;;;;5021198;28;20030;-85
2023/12/19 04:17:01;;;;;;;33.08;29.85;;;32.30;50.40;;;;;;5021523;28;20481;-86
2023/12/19 04:19:29;;;;;;;34.00;30.50;;;32.40;50.40;;;;;;5006733;28;20572;-89
2023/12/19 04:21:57;;;;;;;32.83;29.63;;;32.50;50.90;;;;;;5023220;28;20037;-78
2023/12/19 04:24:26;;;;;;;33.05;29.73;;;32.50;50.90;;;;;;5009649;28;20470;-80
2023/12/19 04:26:54;;;;;;;35.00;31.40;;;32.60;51.00;;;;;;5014364;28;20029;-77
2023/12/19 04:29:21;;;;;;;33.38;30.08;;;32.60;50.40;;;;;;5017289;28;20029;-81
2023/12/19 04:31:49;;;;;;;32.33;29.30;;;32.60;50.60;;;;;;5016243;28;20021;-78
2023/12/19 04:34:17;;;;;;;35.47;32.00;;;32.70;50.70;;;;;;5010115;28;20401;-76
2023/12/19 04:36:45;;;;;;;35.85;32.17;;;32.70;49.20;;;;;;5009364;28;20433;-77
2023/12/19 04:39:12;;;;;;;34.17;30.88;;;32.80;48.40;;;;;;5012791;28;20030;-87
2023/12/19 04:41:40;;;;;;;35.72;31.92;;;32.80;48.70;;;;;;5012595;28;20165;-83
2023/12/19 04:44:07;;;;;;;35.38;31.85;;;32.80;48.50;;;;;;5024951;28;20029;-81
2023/12/19 04:46:35;;;;;;;34.15;30.92;;;32.80;48.90;;;;;;5013331;28;20501;-89
2023/12/19 04:49:03;;;;;;;34.80;29.05;;;32.70;49.30;;;;;;5017734;28;20059;-84
2023/12/19 04:51:30;;;;;;;32.53;29.27;;;32.70;49.80;;;;;;5013333;28;20473;-88
2023/12/19 04:53:59;;;;;;;31.70;28.58;;;32.70;50.70;;;;;;5016938;28;20152;-89
2023/12/19 04:56:27;;;;;;;31.73;28.73;;;32.60;50.70;;;;;;5017462;28;20038;-86
2023/12/19 04:58:58;;;;;;;33.67;30.13;;;32.60;50.70;;;;;;5027329;28;20395;-90
2023/12/19 05:01:26;;;;;;;31.95;28.88;;;32.60;50.70;;;;;;5009731;28;20074;-90
2023/12/19 05:03:53;;;;;;;32.45;29.27;;;32.60;50.30;;;;;;5015507;28;20066;-86
2023/12/19 05:06:24;;;;;;;31.70;28.70;;;32.60;50.20;;;;;;5013414;28;20133;-91
2023/12/19 05:08:51;;;;;;;33.28;30.02;;;32.60;50.20;;;;;;5021314;28;20034;-88
2023/12/19 05:11:20;;;;;;;32.13;28.67;;;32.70;50.20;;;;;;5023783;28;20101;-91
2023/12/19 05:13:47;;;;;;;31.48;28.38;;;32.80;50.30;;;;;;5017595;28;20026;-90
2023/12/19 05:16:16;;;;;;;29.50;26.80;;;32.80;49.90;;;;;;5011467;28;20065;-84
2023/12/19 05:18:45;;;;;;;31.02;27.80;;;32.80;49.70;;;;;;5011619;28;20014;-89
2023/12/19 05:21:13;;;;;;;31.17;27.83;;;32.90;49.90;;;;;;5013915;28;20030;-81
2023/12/19 05:23:41;;;;;;;31.17;28.15;;;32.80;50.00;;;;;;5014542;28;20481;-82
2023/12/19 05:26:09;;;;;;;29.00;25.90;;;32.80;50.00;;;;;;5016061;28;20113;-87
2023/12/19 05:28:38;;;;;;;28.48;25.67;;;32.80;49.50;;;;;;5025132;28;20097;-90
2023/12/19 05:31:10;;;;;;;29.55;26.50;;;32.80;48.60;;;;;;5018258;28;20048;-90
2023/12/19 05:33:38;;;;;;;27.95;25.20;;;32.80;49.30;;;;;;5008153;28;20026;-87
2023/12/19 05:36:07;;;;;;;28.80;25.67;;;32.80;49.30;;;;;;5009593;28;20045;-90
2023/12/19 05:38:40;;;;;;;31.35;28.35;;;32.80;49.50;;;;;;5007682;28;20117;-86
2023/12/19 05:41:09;;;;;;;29.65;26.77;;;32.90;48.70;;;;;;5010935;28;20076;-89
2023/12/19 05:43:37;;;;;;;30.25;27.23;;;32.80;49.20;;;;;;5015268;28;20061;-86
2023/12/19 05:46:07;;;;;;;29.90;26.80;;;32.80;48.40;;;;;;5019459;28;20038;-82
2023/12/19 05:48:36;;;;;;;29.77;26.65;;;32.80;48.30;;;;;;5013845;28;20022;-82
2023/12/19 05:51:03;;;;;;;27.73;25.02;;;32.80;48.50;;;;;;5019931;28;20107;-77
2023/12/19 05:53:31;;;;;;;29.75;26.77;;;32.80;47.90;;;;;;5016940;28;20503;-87
2023/12/19 05:55:58;;;;;;;29.05;26.05;;;32.80;47.80;;;;;;5013695;28;20477;-84
2023/12/19 05:58:25;;;;;;;27.95;25.30;;;32.80;48.30;;;;;;5014128;28;20030;-80
2023/12/19 06:00:55;;;;;;;29.67;26.08;;;32.70;49.30;;;;;;5010882;28;20472;-86
2023/12/19 06:03:23;;;;;;;29.27;26.17;;;32.70;49.90;;;;;;5015773;28;20081;-77
2023/12/19 06:05:50;;;;;;;30.25;27.08;;;32.60;50.40;;;;;;5010791;28;20045;-82
2023/12/19 06:08:19;;;;;;;29.88;26.13;;;32.50;50.90;;;;;;5008888;28;20037;-77
2023/12/19 06:10:48;;;;;;;25.92;23.52;;;32.30;50.10;;;;;;5012007;28;20396;-76
2023/12/19 06:13:19;;;;;;;27.20;24.38;;;32.10;49.70;;;;;;5018537;28;20050;-83
2023/12/19 06:15:47;;;;;;;26.42;23.55;;;32.00;47.10;;;;;;5014821;28;20068;-87
2023/12/19 06:18:16;;;;;;;25.52;22.98;;;31.90;47.30;;;;;;5005794;28;20482;-88
2023/12/19 06:20:43;;;;;;;23.67;21.52;;;31.80;47.20;;;;;;5011881;28;20061;-89
2023/12/19 06:23:11;;;;;;;24.00;21.75;;;31.80;47.50;;;;;;5011937;28;20453;-77
2023/12/19 06:25:39;;;;;;;21.48;19.45;;;31.70;47.00;;;;;;5013021;28;20477;-88
2023/12/19 06:28:07;;;;;;;22.75;20.60;;;31.70;47.50;;;;;;5008885;28;20117;-87
2023/12/19 06:30:35;;;;;;;22.15;19.80;;;31.60;48.00;;;;;;5017589;28;20029;-87
2023/12/19 06:33:04;;;;;;;21.20;19.20;;;31.50;48.40;;;;;;5017061;28;20030;-89
2023/12/19 06:35:32;;;;;;;22.60;19.50;;;31.50;49.50;;;;;;5021578;28;20025;-83
2023/12/19 06:37:59;;;;;;;20.65;18.10;;;31.50;50.20;;;;;;5016708;28;20033;-83
2023/12/19 06:40:26;;;;;;;21.10;19.05;;;31.40;50.60;;;;;;5026523;28;20029;-88
2023/12/19 06:42:54;;;;;;;22.10;19.00;;;31.30;51.50;;;;;;5016791;28;20083;-89
2023/12/19 06:45:21;;;;;;;21.70;19.40;;;31.30;52.20;;;;;;5014813;28;20347;-79
2023/12/19 06:47:48;;;;;;;19.80;17.77;;;31.20;52.30;;;;;;5026620;28;20044;-78
2023/12/19 06:50:18;;;;;;;20.52;18.38;;;31.10;52.70;;;;;;5016982;28;20196;-89
2023/12/19 06:52:47;;;;;;;20.63;18.10;;;31.10;52.80;;;;;;5017768;28;20060;-86
2023/12/19 06:55:15;;;;;;;19.33;16.60;;;31.10;52.40;;;;;;5021141;28;20034;-89
2023/12/19 06:57:42;;;;;;;18.60;16.70;;;31.10;52.10;;;;;;5018151;28;20491;-81
2023/12/19 07:00:10;;;;;;;19.38;16.55;;;31.20;51.50;;;;;;5011796;28;20154;-80
2023/12/19 07:02:38;;;;;;;20.10;16.73;;;31.20;50.90;;;;;;5013812;28;20105;-88
2023/12/19 07:05:05;;;;;;;18.13;16.40;;;31.10;51.30;;;;;;5014410;28;20532;-85
2023/12/19 07:07:33;;;;;;;18.23;16.30;;;31.10;51.20;;;;;;5009793;28;20044;-89
2023/12/19 07:10:01;;;;;;;18.98;16.00;;;31.00;51.60;;;;;;5012899;28;20358;-87
2023/12/19 07:12:28;;;;;;;19.73;14.95;;;31.00;51.10;;;;;;5014781;28;20026;-87
2023/12/19 07:14:56;;;;;;;16.13;14.40;;;31.00;50.50;;;;;;5015079;28;20036;-89
2023/12/19 07:17:24;;;;;;;15.32;13.60;;;30.90;51.20;;;;;;4995778;28;20042;-85
2023/12/19 07:19:51;;;;;;;14.90;13.48;;;30.90;50.50;;;;;;5014584;28;20044;-79
2023/12/19 07:22:19;;;;;;;15.20;13.63;;;30.90;50.10;;;;;;5025787;28;20061;-86
2023/12/19 07:24:46;;;;;;;13.98;12.25;;;30.80;50.60;;;;;;5011218;28;20118;-91
2023/12/19 07:27:13;;;;;;;14.40;12.48;;;30.80;50.30;;;;;;5013540;28;20042;-78
2023/12/19 07:29:41;;;;;;;14.32;12.82;;;30.70;51.10;;;;;;5028346;28;20048;-89
2023/12/19 07:32:09;;;;;;;13.73;12.38;;;30.70;51.80;;;;;;5012915;28;20022;-83
2023/12/19 07:34:36;;;;;;;15.07;12.93;;;30.60;51.20;;;;;;5013792;28;20496;-83
2023/12/19 07:37:04;;;;;;;17.55;13.02;;;30.60;50.90;;;;;;5014965;28;20029;-88
2023/12/19 07:39:33;;;;;;;16.60;12.55;;;30.60;51.20;;;;;;5011845;28;20037;-87
2023/12/19 07:42:00;;;;;;;13.43;12.10;;;30.60;50.40;;;;;;5014586;28;20096;-90
2023/12/19 07:44:29;;;;;;;14.52;11.63;;;30.60;51.10;;;;;;5012865;28;20401;-85
2023/12/19 07:46:57;;;;;;;13.15;11.63;;;30.60;51.40;;;;;;5011562;28;20034;-86
2023/12/19 07:49:24;;;;;;;11.80;10.60;;;30.60;51.40;;;;;;5010399;28;20029;-82
2023/12/19 07:51:52;;;;;;;13.50;11.75;;;30.60;51.20;;;;;;5021653;28;20104;-86
2023/12/19 07:54:19;;;;;;;12.95;11.55;;;30.60;50.40;;;;;;5015429;28;20029;-88
2023/12/19 07:56:47;;;;;;;14.05;11.35;;;30.60;50.20;;;;;;5019255;28;20038;-90
2023/12/19 07:59:16;;;;;;;12.45;11.15;;;30.60;50.60;;;;;;5013032;28;20445;-82
2023/12/19 08:01:48;;;;;;;14.45;11.95;;;30.50;51.20;;;;;;5030968;28;20029;-83
2023/12/19 08:04:16;;;;;;;13.30;11.65;;;30.50;50.50;;;;;;5026705;28;20577;-86
2023/12/19 08:06:44;;;;;;;12.63;11.35;;;30.50;49.50;;;;;;5025948;28;20049;-84
2023/12/19 08:09:14;;;;;;;15.23;11.82;;;30.50;50.20;;;;;;5017843;28;20061;-86
2023/12/19 08:11:41;;;;;;;14.35;11.80;;;30.40;49.70;;;;;;5013798;28;20045;-83
2023/12/19 08:14:10;;;;;;;12.38;11.18;;;30.40;49.30;;;;;;5015927;28;20030;-83
2023/12/19 08:16:38;;;;;;;11.60;10.57;;;30.40;48.20;;;;;;5017794;28;20154;-77
2023/12/19 08:19:05;;;;;;;12.95;9.93;;;30.40;47.40;;;;;;5015761;28;20068;-78
2023/12/19 08:21:33;;;;;;;11.73;9.60;;;30.40;45.70;;;;;;5016024;28;20141;-80
2023/12/19 08:24:04;;;;;;;9.70;8.70;;;30.40;46.50;;;;;;5014273;28;20025;-77
2023/12/19 08:26:31;;;;;;;9.90;8.98;;;30.40;44.90;;;;;;5005813;28;20469;-81
2023/12/19 08:28:58;;;;;;;9.18;8.30;;;30.40;45.90;;;;;;5015351;28;20030;-80
2023/12/19 08:31:26;;;;;;;9.82;8.57;;;30.40;46.30;;;;;;5013683;28;20513;-82
2023/12/19 08:33:54;;;;;;;9.10;8.20;;;30.40;46.20;;;;;;5027977;28;20030;-76
2023/12/19 08:36:24;;;;;;;10.98;8.75;;;30.40;46.70;;;;;;5023051;28;20140;-81
2023/12/19 08:38:52;;;;;;;11.20;9.23;;;30.40;45.60;;;;;;5011933;28;20032;-79
2023/12/19 08:41:19;;;;;;;8.88;7.97;;;30.40;45.80;;;;;;5013060;28;20022;-84
2023/12/19 08:43:46;;;;;;;9.50;8.45;;;30.40;44.30;;;;;;5012727;28;20038;-82
2023/12/19 08:46:18;;;;;;;9.48;8.25;;;30.40;44.60;;;;;;5012685;28;20046;-84
2023/12/19 08:48:50;;;;;;;9.32;8.38;;;30.50;44.10;;;;;;5013945;28;20063;-80
2023/12/19 08:51:17;;;;;;;9.82;8.35;;;30.40;44.60;;;;;;5016224;28;20030;-78
2023/12/19 08:53:46;;;;;;;13.27;8.32;;;30.40;44.70;;;;;;5015543;28;20496;-84
2023/12/19 08:56:13;;;;;;;9.80;8.30;;;30.30;44.70;;;;;;5025710;28;20056;-81
2023/12/19 08:58:43;;;;;;;10.60;8.93;;;30.30;44.10;;;;;;5033072;28;20025;-86
2023/12/19 09:01:11;;;;;;;10.73;9.60;;;30.30;43.90;;;;;;5024319;28;20108;-80
2023/12/19 09:03:38;;;;;;;12.30;9.02;;;30.30;43.90;;;;;;5018444;28;20468;-79
2023/12/19 09:06:06;;;;;;;16.15;8.95;;;30.30;45.00;;;;;;5026242;28;20041;-82
2023/12/19 09:08:34;;;;;;;17.45;7.95;;;30.30;48.80;;;;;;5030138;28;20109;-81
2023/12/19 09:11:01;;;;;;;14.07;6.15;;;30.00;51.30;;;;;;5014399;28;20041;-79
2023/12/19 09:13:29;;;;;;;26.38;7.00;;;29.80;53.00;;;;;;5029264;28;20034;-81
2023/12/19 09:16:00;;;;;;;31.48;6.30;;;29.60;54.30;;;;;;5031992;28;20361;-81
2023/12/19 09:18:28;;;;;;;27.33;6.55;;;29.10;55.20;;;;;;5032204;28;20029;-79
2023/12/19 09:20:56;;;;;;;26.48;6.25;;;28.70;56.60;;;;;;5026211;28;20024;-82
2023/12/19 09:23:23;;;;;;;21.67;5.85;;;28.30;58.70;;;;;;5003891;28;20038;-84
2023/12/19 09:25:51;;;;;;;16.00;5.18;;;27.90;60.10;;;;;;5011043;28;20041;-84
2023/12/19 09:28:18;;;;;;;22.83;6.05;;;27.60;61.30;;;;;;5015238;28;20041;-78
2023/12/19 09:30:46;;;;;;;23.23;6.35;;;27.30;62.70;;;;;;5014532;28;20022;-78
2023/12/19 09:33:14;;;;;;;28.52;6.32;;;27.00;63.80;;;;;;5012138;28;20334;-79
2023/12/19 09:35:41;;;;;;;24.05;6.13;;;26.80;64.30;;;;;;5012209;28;20038;-81
2023/12/19 09:38:09;;;;;;;29.13;7.07;;;26.70;64.90;;;;;;5012668;28;20042;-83
2023/12/19 09:40:36;;;;;;;34.90;8.25;;;26.60;65.90;;;;;;5011513;28;20094;-83
2023/12/19 09:43:04;;;;;;;42.72;9.23;;;26.50;68.50;;;;;;5017119;28;20028;-83
2023/12/19 09:45:31;;;;;;;44.80;10.60;;;26.10;70.60;;;;;;5010559;28;20457;-80
2023/12/19 09:48:03;;;;;;;38.30;9.13;;;25.70;72.20;;;;;;5014707;28;20038;-84
2023/12/19 09:50:32;;;;;;;38.92;9.80;;;25.30;74.00;;;;;;5011084;28;20017;-89
2023/12/19 09:53:07;;;;;;;37.83;9.05;;;25.10;75.40;;;;;;5015153;28;20481;-78
2023/12/19 09:55:42;;;;;;;43.47;9.27;;;24.90;76.50;;;;;;5014317;28;20116;-79
2023/12/19 09:58:14;;;;;;;34.97;9.75;;;24.70;76.90;;;;;;5015445;28;20053;-82
2023/12/19 10:00:46;;;;;;;38.00;7.85;;;24.40;77.70;;;;;;5011566;28;20022;-81
2023/12/19 10:03:13;;;;;;;27.92;6.82;;;24.30;78.30;;;;;;5011153;28;20037;-86
2023/12/19 10:05:44;;;;;;;31.52;7.55;;;24.10;78.50;;;;;;5010198;28;20050;-86
2023/12/19 10:08:13;;;;;;;31.27;7.65;;;23.90;79.30;;;;;;5009410;28;20053;-82
2023/12/19 10:10:54;;;;;;;38.38;7.85;;;23.70;80.20;;;;;;5012104;28;20484;-80
2023/12/19 10:13:33;;;;;;;30.52;6.80;;;23.60;80.70;;;;;;5007757;28;20117;-81
2023/12/19 10:16:06;;;;;;;36.83;8.35;;;23.50;81.20;;;;;;5009336;28;20038;-78
2023/12/19 10:18:34;;;;;;;34.17;8.25;;;23.50;81.50;;;;;;5012298;28;20029;-78
2023/12/19 10:21:14;;;;;;;32.47;7.43;;;23.40;81.50;;;;;;5014204;28;20496;-77
2023/12/19 10:23:42;;;;;;;29.67;7.88;;;23.30;81.60;;;;;;5006663;28;20030;-79
2023/12/19 10:26:10;;;;;;;33.25;7.68;;;23.40;82.20;;;;;;5007382;28;20433;-82
2023/12/19 10:28:38;;;;;;;32.50;7.90;;;23.40;82.60;;;;;;5014055;28;20021;-84
2023/12/19 10:31:16;;;;;;;35.78;8.30;;;23.40;82.20;;;;;;5009831;28;20041;-83
2023/12/19 10:33:51;;;;;;;29.63;7.05;;;23.50;82.10;;;;;;5010366;28;20033;-78
2023/12/19 10:36:29;;;;;;;31.10;9.32;;;23.40;82.50;;;;;;5009979;28;20046;-82
2023/12/19 10:38:58;;;;;;;40.45;8.98;;;23.40;82.60;;;;;;5008947;28;20045;-83
2023/12/19 10:41:27;;;;;;;33.83;8.07;;;23.40;82.40;;;;;;5007595;28;20125;-82
2023/12/19 10:43:59;;;;;;;32.65;7.68;;;23.30;82.90;;;;;;5011880;28;20155;-79
2023/12/19 10:46:31;;;;;;;34.85;7.30;;;23.20;83.20;;;;;;5009396;28;20086;-80
2023/12/19 10:49:04;;;;;;;37.67;6.78;;;23.20;83.70;;;;;;5005186;28;20582;-83
2023/12/19 10:51:33;;;;;;;27.13;6.85;;;23.20;84.00;;;;;;5007168;28;20038;-81
2023/12/19 10:54:11;;;;;;;36.42;6.82;;;23.20;84.20;;;;;;5009530;28;20068;-85
2023/12/19 10:57:11;;;;;;;39.15;8.00;;;23.30;84.10;;;;;;5010461;28;20065;-80
2023/12/19 11:00:09;;;;;;;41.47;6.90;;;23.30;84.20;;;;;;4997367;28;20025;-80
2023/12/19 11:02:47;;;;;;;35.92;8.02;;;23.30;84.30;;;;;;5009118;28;20065;-77
2023/12/19 11:05:52;;;;;;;29.10;7.22;;;23.20;84.40;;;;;;5010751;28;20039;-78
2023/12/19 11:08:23;;;;;;;39.55;7.82;;;23.20;84.80;;;;;;5022100;28;20036;-81
2023/12/19 11:10:51;;;;;;;29.50;6.72;;;23.20;84.90;;;;;;5004777;28;20535;-85
2023/12/19 11:13:19;;;;;;;41.80;7.70;;;23.20;85.20;;;;;;5014456;28;20032;-80
2023/12/19 11:16:00;;;;;;;39.95;7.75;;;23.20;85.20;;;;;;5006434;28;20036;-80
2023/12/19 11:19:00;;;;;;;36.78;7.97;;;23.20;85.40;;;;;;5011681;28;20038;-82
2023/12/19 11:22:05;;;;;;;41.33;7.40;;;23.20;85.40;;;;;;5002280;28;20128;-80
2023/12/19 11:25:01;;;;;;;35.78;7.57;;;23.10;85.50;;;;;;4988258;28;20662;-82
2023/12/19 11:27:42;;;;;;;40.28;7.75;;;23.10;85.70;;;;;;5009606;28;20037;-80
2023/12/19 11:30:35;;;;;;;39.65;8.00;;;23.10;85.70;;;;;;5011596;28;20496;-80
2023/12/19 11:33:04;;;;;;;31.75;7.40;;;23.00;86.00;;;;;;5004722;28;20062;-78
2023/12/19 11:35:32;;;;;;;27.38;6.00;;;23.00;86.20;;;;;;5007772;28;20126;-79
2023/12/19 11:38:15;;;;;;;29.58;7.20;;;23.00;86.10;;;;;;5007687;28;20049;-82
2023/12/19 11:40:59;;;;;;;32.78;7.03;;;23.00;86.20;;;;;;5011855;28;20029;-81
2023/12/19 11:43:29;;;;;;;37.20;7.05;;;23.00;86.20;;;;;;5009215;28;20522;-78
2023/12/19 11:46:18;;;;;;;36.75;6.65;;;23.00;86.30;;;;;;5011060;28;20306;-83
2023/12/19 11:48:52;;;;;;;46.80;8.40;;;23.00;86.50;;;;;;5013545;28;20026;-84
2023/12/19 11:51:50;;;;;;;27.25;6.85;;;23.00;86.60;;;;;;5009252;28;20029;-79
2023/12/19 11:54:19;;;;;;;37.10;6.65;;;23.00;86.70;;;;;;5008548;28;20038;-82
2023/12/19 11:56:56;;;;;;;34.42;6.22;;;22.90;86.70;;;;;;5001842;28;20034;-78
2023/12/19 11:59:24;;;;;;;27.80;5.70;;;22.90;86.80;;;;;;5009998;28;20034;-82
2023/12/19 12:01:54;;;;;;;33.55;6.30;;;23.00;86.90;;;;;;5018212;28;20037;-81
2023/12/19 12:04:21;;;;;;;29.00;7.07;;;23.00;86.80;;;;;;5015733;28;20389;-84
2023/12/19 12:06:48;;;;;;;26.40;5.22;;;23.00;86.70;;;;;;5012909;28;20046;-84
2023/12/19 12:09:19;;;;;;;32.75;6.85;;;23.00;86.70;;;;;;5021181;28;20022;-78
2023/12/19 12:11:54;;;;;;;27.75;6.10;;;23.00;86.70;;;;;;5000695;28;20036;-78
2023/12/19 12:14:22;;;;;;;29.40;5.90;;;23.00;86.60;;;;;;5015916;28;20048;-84
2023/12/19 12:16:49;;;;;;;27.27;5.57;;;23.00;86.20;;;;;;5019558;28;20037;-81
2023/12/19 12:19:18;;;;;;;25.42;6.10;;;22.90;86.30;;;;;;5012655;28;20097;-80
2023/12/19 12:21:47;;;;;;;24.83;5.50;;;22.80;86.30;;;;;;5021355;28;20026;-84
2023/12/19 12:24:25;;;;;;;34.47;6.88;;;22.80;86.60;;;;;;5011177;28;20061;-83
2023/12/19 12:27:11;;;;;;;28.80;5.57;;;22.80;86.70;;;;;;5010431;28;20111;-82
2023/12/19 12:29:38;;;;;;;23.98;6.32;;;22.80;86.80;;;;;;5021743;28;20029;-82
2023/12/19 12:32:06;;;;;;;28.35;6.28;;;22.80;86.80;;;;;;5013677;28;20061;-82
2023/12/19 12:34:34;;;;;;;25.25;5.93;;;22.80;86.90;;;;;;5021717;28;20485;-80
2023/12/19 12:37:02;;;;;;;33.88;6.45;;;22.80;86.90;;;;;;5021837;28;20050;-81
2023/12/19 12:39:29;;;;;;;32.83;6.10;;;22.90;86.80;;;;;;5012512;28;20373;-80
2023/12/19 12:42:06;;;;;;;35.72;6.38;;;22.90;86.70;;;;;;5006777;28;20034;-80